sensor_id;sensor_type;location;lat;lon;timestamp;temperature;humidity
57753;DHT22;43583;53.132;6.574;2022-09-13T00:01:36;17.30;99.90
57753;DHT22;43583;53.132;6.574;2022-09-13T00:04:02;17.30;99.90
57753;DHT22;43583;53.132;6.574;2022-09-13T00:06:28;17.30;99.90
57753;DHT22;43583;53.132;6.574;2022-09-13T00:08:54;17.30;99.90
57753;DHT22;43583;53.132;6.574;2022-09-13T00:11:24;17.30;99.90
57753;DHT22;43583;53.132;6.574;2022-09-13T00:13:50;17.30;99.90
57753;DHT22;43583;53.132;6.574;2022-09-13T00:16:18;17.30;99.90
57753;DHT22;43583;53.132;6.574;2022-09-13T00:18:44;17.30;99.90
57753;DHT22;43583;53.132;6.574;2022-09-13T00:21:13;17.30;99.90
57753;DHT22;43583;53.132;6.574;2022-09-13T00:23:39;17.30;99.90
57753;DHT22;43583;53.132;6.574;2022-09-13T00:26:10;17.30;99.90
57753;DHT22;43583;53.132;6.574;2022-09-13T00:28:36;17.30;99.90
57753;DHT22;43583;53.132;6.574;2022-09-13T00:31:03;17.30;99.90
57753;DHT22;43583;53.132;6.574;2022-09-13T00:33:29;17.30;99.90
57753;DHT22;43583;53.132;6.574;2022-09-13T00:35:55;17.30;99.90
57753;DHT22;43583;53.132;6.574;2022-09-13T00:38:21;17.30;99.90
57753;DHT22;43583;53.132;6.574;2022-09-13T00:40:47;17.30;99.90
57753;DHT22;43583;53.132;6.574;2022-09-13T00:43:20;17.30;99.90
57753;DHT22;43583;53.132;6.574;2022-09-13T00:45:47;17.30;99.90
57753;DHT22;43583;53.132;6.574;2022-09-13T00:48:21;17.30;99.90
57753;DHT22;43583;53.132;6.574;2022-09-13T00:50:56;17.30;99.90
57753;DHT22;43583;53.132;6.574;2022-09-13T00:53:25;17.30;99.90
57753;DHT22;43583;53.132;6.574;2022-09-13T00:56:05;17.30;99.90
57753;DHT22;43583;53.132;6.574;2022-09-13T00:58:38;17.20;99.90
57753;DHT22;43583;53.132;6.574;2022-09-13T01:01:08;17.30;99.90
57753;DHT22;43583;53.132;6.574;2022-09-13T01:03:35;17.30;99.90
57753;DHT22;43583;53.132;6.574;2022-09-13T01:06:14;17.30;99.90
57753;DHT22;43583;53.132;6.574;2022-09-13T01:08:45;17.30;99.90
57753;DHT22;43583;53.132;6.574;2022-09-13T01:11:17;17.30;99.90
57753;DHT22;43583;53.132;6.574;2022-09-13T01:13:44;17.30;99.90
57753;DHT22;43583;53.132;6.574;2022-09-13T01:16:11;17.30;99.90
57753;DHT22;43583;53.132;6.574;2022-09-13T01:18:36;17.30;99.90
57753;DHT22;43583;53.132;6.574;2022-09-13T01:23:48;17.30;99.90
57753;DHT22;43583;53.132;6.574;2022-09-13T01:31:26;17.30;99.90
57753;DHT22;43583;53.132;6.574;2022-09-13T01:42:19;17.30;99.90
57753;DHT22;43583;53.132;6.574;2022-09-13T01:45:16;17.30;99.90
57753;DHT22;43583;53.132;6.574;2022-09-13T01:50:38;17.30;99.90
57753;DHT22;43583;53.132;6.574;2022-09-13T01:53:18;17.30;99.90
57753;DHT22;43583;53.132;6.574;2022-09-13T01:55:56;17.20;99.90
57753;DHT22;43583;53.132;6.574;2022-09-13T02:01:20;17.20;99.90
57753;DHT22;43583;53.132;6.574;2022-09-13T02:04:00;17.20;99.90
57753;DHT22;43583;53.132;6.574;2022-09-13T02:06:37;17.10;99.90
57753;DHT22;43583;53.132;6.574;2022-09-13T02:09:14;17.10;99.90
57753;DHT22;43583;53.132;6.574;2022-09-13T02:11:45;17.10;99.90
57753;DHT22;43583;53.132;6.574;2022-09-13T02:14:24;17.10;99.90
57753;DHT22;43583;53.132;6.574;2022-09-13T02:16:55;17.10;99.90
57753;DHT22;43583;53.132;6.574;2022-09-13T02:19:37;17.10;99.90
57753;DHT22;43583;53.132;6.574;2022-09-13T02:22:07;17.00;99.90
57753;DHT22;43583;53.132;6.574;2022-09-13T02:24:36;17.00;99.90
57753;DHT22;43583;53.132;6.574;2022-09-13T02:27:08;17.00;99.90
57753;DHT22;43583;53.132;6.574;2022-09-13T02:29:38;17.00;99.90
57753;DHT22;43583;53.132;6.574;2022-09-13T02:34:42;16.90;99.90
57753;DHT22;43583;53.132;6.574;2022-09-13T02:37:10;17.00;99.90
57753;DHT22;43583;53.132;6.574;2022-09-13T02:39:41;16.90;99.90
57753;DHT22;43583;53.132;6.574;2022-09-13T02:42:16;16.90;99.90
57753;DHT22;43583;53.132;6.574;2022-09-13T02:44:53;16.90;99.90
57753;DHT22;43583;53.132;6.574;2022-09-13T02:47:28;16.80;99.90
57753;DHT22;43583;53.132;6.574;2022-09-13T02:50:00;16.90;99.90
57753;DHT22;43583;53.132;6.574;2022-09-13T03:00:37;16.90;99.90
57753;DHT22;43583;53.132;6.574;2022-09-13T03:03:05;16.90;99.90
57753;DHT22;43583;53.132;6.574;2022-09-13T03:05:31;16.90;99.90
57753;DHT22;43583;53.132;6.574;2022-09-13T03:07:58;17.00;99.90
57753;DHT22;43583;53.132;6.574;2022-09-13T03:10:25;17.00;99.90
57753;DHT22;43583;53.132;6.574;2022-09-13T03:18:50;17.10;99.90
57753;DHT22;43583;53.132;6.574;2022-09-13T03:21:43;17.10;99.90
57753;DHT22;43583;53.132;6.574;2022-09-13T03:24:32;17.10;99.90
57753;DHT22;43583;53.132;6.574;2022-09-13T03:30:03;17.20;99.90
57753;DHT22;43583;53.132;6.574;2022-09-13T03:32:46;17.20;99.90
57753;DHT22;43583;53.132;6.574;2022-09-13T03:35:17;17.20;99.90
57753;DHT22;43583;53.132;6.574;2022-09-13T03:38:06;17.20;99.90
57753;DHT22;43583;53.132;6.574;2022-09-13T03:40:34;17.30;99.90
57753;DHT22;43583;53.132;6.574;2022-09-13T03:43:13;17.20;99.90
57753;DHT22;43583;53.132;6.574;2022-09-13T03:45:56;17.20;99.90
57753;DHT22;43583;53.132;6.574;2022-09-13T03:48:23;17.20;99.90
57753;DHT22;43583;53.132;6.574;2022-09-13T03:50:49;17.20;99.90
57753;DHT22;43583;53.132;6.574;2022-09-13T03:53:20;17.20;99.90
57753;DHT22;43583;53.132;6.574;2022-09-13T03:55:46;17.20;99.90
57753;DHT22;43583;53.132;6.574;2022-09-13T03:58:15;17.20;99.90
57753;DHT22;43583;53.132;6.574;2022-09-13T04:00:41;17.20;99.90
57753;DHT22;43583;53.132;6.574;2022-09-13T04:03:08;17.20;99.90
57753;DHT22;43583;53.132;6.574;2022-09-13T04:05:33;17.20;99.90
57753;DHT22;43583;53.132;6.574;2022-09-13T04:08:00;17.20;99.90
57753;DHT22;43583;53.132;6.574;2022-09-13T04:10:27;17.30;99.90
57753;DHT22;43583;53.132;6.574;2022-09-13T04:12:53;17.30;99.90
57753;DHT22;43583;53.132;6.574;2022-09-13T04:15:19;17.20;99.90
57753;DHT22;43583;53.132;6.574;2022-09-13T04:17:46;17.30;99.90
57753;DHT22;43583;53.132;6.574;2022-09-13T04:20:12;17.30;99.90
57753;DHT22;43583;53.132;6.574;2022-09-13T04:22:37;17.30;99.90
57753;DHT22;43583;53.132;6.574;2022-09-13T04:25:04;17.30;99.90
57753;DHT22;43583;53.132;6.574;2022-09-13T04:27:30;17.20;99.90
57753;DHT22;43583;53.132;6.574;2022-09-13T04:29:55;17.20;99.90
57753;DHT22;43583;53.132;6.574;2022-09-13T04:32:21;17.20;99.90
57753;DHT22;43583;53.132;6.574;2022-09-13T04:34:46;17.20;99.90
57753;DHT22;43583;53.132;6.574;2022-09-13T04:37:12;17.20;99.90
57753;DHT22;43583;53.132;6.574;2022-09-13T04:39:38;17.20;99.90
57753;DHT22;43583;53.132;6.574;2022-09-13T04:42:03;17.20;99.90
57753;DHT22;43583;53.132;6.574;2022-09-13T04:44:29;17.20;99.90
57753;DHT22;43583;53.132;6.574;2022-09-13T04:46:56;17.20;99.90
57753;DHT22;43583;53.132;6.574;2022-09-13T04:49:21;17.20;99.90
57753;DHT22;43583;53.132;6.574;2022-09-13T04:51:47;17.20;99.90
57753;DHT22;43583;53.132;6.574;2022-09-13T04:54:13;17.20;99.90
57753;DHT22;43583;53.132;6.574;2022-09-13T04:56:39;17.10;99.90
57753;DHT22;43583;53.132;6.574;2022-09-13T04:59:05;17.20;99.90
57753;DHT22;43583;53.132;6.574;2022-09-13T05:01:31;17.10;99.90
57753;DHT22;43583;53.132;6.574;2022-09-13T05:03:57;17.10;99.90
57753;DHT22;43583;53.132;6.574;2022-09-13T05:06:22;17.20;99.90
57753;DHT22;43583;53.132;6.574;2022-09-13T05:08:50;17.10;99.90
57753;DHT22;43583;53.132;6.574;2022-09-13T05:11:17;17.10;99.90
57753;DHT22;43583;53.132;6.574;2022-09-13T05:13:43;17.10;99.90
57753;DHT22;43583;53.132;6.574;2022-09-13T05:16:09;17.10;99.90
57753;DHT22;43583;53.132;6.574;2022-09-13T05:18:35;17.10;99.90
57753;DHT22;43583;53.132;6.574;2022-09-13T05:21:03;17.10;99.90
57753;DHT22;43583;53.132;6.574;2022-09-13T05:23:30;17.10;99.90
57753;DHT22;43583;53.132;6.574;2022-09-13T05:25:57;17.10;99.90
57753;DHT22;43583;53.132;6.574;2022-09-13T05:28:24;17.10;99.90
57753;DHT22;43583;53.132;6.574;2022-09-13T05:33:43;17.10;99.90
57753;DHT22;43583;53.132;6.574;2022-09-13T05:36:10;17.00;99.90
57753;DHT22;43583;53.132;6.574;2022-09-13T05:38:35;17.00;99.90
57753;DHT22;43583;53.132;6.574;2022-09-13T05:41:02;17.10;99.90
57753;DHT22;43583;53.132;6.574;2022-09-13T05:43:31;17.00;99.90
57753;DHT22;43583;53.132;6.574;2022-09-13T05:46:09;17.00;99.90
57753;DHT22;43583;53.132;6.574;2022-09-13T05:48:35;17.00;99.90
57753;DHT22;43583;53.132;6.574;2022-09-13T05:53:30;17.00;99.90
57753;DHT22;43583;53.132;6.574;2022-09-13T05:55:56;17.00;99.90
57753;DHT22;43583;53.132;6.574;2022-09-13T05:58:22;17.00;99.90
57753;DHT22;43583;53.132;6.574;2022-09-13T06:00:52;17.00;99.90
57753;DHT22;43583;53.132;6.574;2022-09-13T06:03:18;17.10;99.90
57753;DHT22;43583;53.132;6.574;2022-09-13T06:05:44;17.10;99.90
57753;DHT22;43583;53.132;6.574;2022-09-13T06:08:10;17.10;99.90
57753;DHT22;43583;53.132;6.574;2022-09-13T06:10:35;17.20;99.90
57753;DHT22;43583;53.132;6.574;2022-09-13T06:13:01;17.10;99.90
57753;DHT22;43583;53.132;6.574;2022-09-13T06:15:26;17.20;99.90
57753;DHT22;43583;53.132;6.574;2022-09-13T06:17:52;17.20;99.90
57753;DHT22;43583;53.132;6.574;2022-09-13T06:20:17;17.20;99.90
57753;DHT22;43583;53.132;6.574;2022-09-13T06:22:43;17.30;99.90
57753;DHT22;43583;53.132;6.574;2022-09-13T06:25:08;17.30;99.90
57753;DHT22;43583;53.132;6.574;2022-09-13T06:27:35;17.30;99.90
57753;DHT22;43583;53.132;6.574;2022-09-13T06:30:00;17.40;99.90
57753;DHT22;43583;53.132;6.574;2022-09-13T06:32:26;17.50;99.90
57753;DHT22;43583;53.132;6.574;2022-09-13T06:34:51;17.50;99.90
57753;DHT22;43583;53.132;6.574;2022-09-13T06:37:17;17.60;99.90
57753;DHT22;43583;53.132;6.574;2022-09-13T06:39:42;17.80;99.90
57753;DHT22;43583;53.132;6.574;2022-09-13T06:42:08;17.90;99.90
57753;DHT22;43583;53.132;6.574;2022-09-13T06:44:34;18.00;99.90
57753;DHT22;43583;53.132;6.574;2022-09-13T06:46:59;18.10;99.90
57753;DHT22;43583;53.132;6.574;2022-09-13T06:49:25;18.20;99.90
57753;DHT22;43583;53.132;6.574;2022-09-13T06:51:50;18.50;99.90
57753;DHT22;43583;53.132;6.574;2022-09-13T06:54:16;18.80;99.90
57753;DHT22;43583;53.132;6.574;2022-09-13T06:56:41;19.80;99.90
57753;DHT22;43583;53.132;6.574;2022-09-13T06:59:09;21.20;99.90
57753;DHT22;43583;53.132;6.574;2022-09-13T07:01:42;21.90;99.90
57753;DHT22;43583;53.132;6.574;2022-09-13T07:04:10;22.10;99.90
57753;DHT22;43583;53.132;6.574;2022-09-13T07:06:38;21.70;99.90
57753;DHT22;43583;53.132;6.574;2022-09-13T07:09:06;21.50;99.90
57753;DHT22;43583;53.132;6.574;2022-09-13T07:11:37;21.50;99.90
57753;DHT22;43583;53.132;6.574;2022-09-13T07:14:04;21.80;99.90
57753;DHT22;43583;53.132;6.574;2022-09-13T07:16:32;22.10;99.90
57753;DHT22;43583;53.132;6.574;2022-09-13T07:19:00;22.10;99.90
57753;DHT22;43583;53.132;6.574;2022-09-13T07:21:27;21.80;99.90
57753;DHT22;43583;53.132;6.574;2022-09-13T07:23:53;21.60;99.90
57753;DHT22;43583;53.132;6.574;2022-09-13T07:26:20;21.30;99.90
57753;DHT22;43583;53.132;6.574;2022-09-13T07:28:48;21.00;99.90
57753;DHT22;43583;53.132;6.574;2022-09-13T07:31:19;20.80;99.90
57753;DHT22;43583;53.132;6.574;2022-09-13T07:33:47;20.60;99.90
57753;DHT22;43583;53.132;6.574;2022-09-13T07:36:13;20.50;99.90
57753;DHT22;43583;53.132;6.574;2022-09-13T07:38:40;20.40;99.90
57753;DHT22;43583;53.132;6.574;2022-09-13T07:41:09;20.50;99.90
57753;DHT22;43583;53.132;6.574;2022-09-13T07:43:36;20.50;99.90
57753;DHT22;43583;53.132;6.574;2022-09-13T07:46:07;20.50;99.90
57753;DHT22;43583;53.132;6.574;2022-09-13T07:48:35;20.50;99.90
57753;DHT22;43583;53.132;6.574;2022-09-13T07:51:07;20.70;99.90
57753;DHT22;43583;53.132;6.574;2022-09-13T07:53:34;21.00;99.90
57753;DHT22;43583;53.132;6.574;2022-09-13T07:56:06;21.20;99.90
57753;DHT22;43583;53.132;6.574;2022-09-13T07:58:33;20.90;99.90
57753;DHT22;43583;53.132;6.574;2022-09-13T08:01:03;21.20;99.90
57753;DHT22;43583;53.132;6.574;2022-09-13T08:03:29;22.10;99.90
57753;DHT22;43583;53.132;6.574;2022-09-13T08:05:55;23.10;99.90
57753;DHT22;43583;53.132;6.574;2022-09-13T08:08:21;24.20;99.90
57753;DHT22;43583;53.132;6.574;2022-09-13T08:10:46;25.00;99.90
57753;DHT22;43583;53.132;6.574;2022-09-13T08:13:14;25.50;99.90
57753;DHT22;43583;53.132;6.574;2022-09-13T08:15:39;26.20;99.90
57753;DHT22;43583;53.132;6.574;2022-09-13T08:18:05;26.70;99.90
57753;DHT22;43583;53.132;6.574;2022-09-13T08:20:35;27.40;99.90
57753;DHT22;43583;53.132;6.574;2022-09-13T08:23:00;28.00;99.90
57753;DHT22;43583;53.132;6.574;2022-09-13T08:25:26;28.20;99.90
57753;DHT22;43583;53.132;6.574;2022-09-13T08:27:52;27.50;99.90
57753;DHT22;43583;53.132;6.574;2022-09-13T08:30:17;27.20;99.90
57753;DHT22;43583;53.132;6.574;2022-09-13T08:32:42;27.40;99.90
57753;DHT22;43583;53.132;6.574;2022-09-13T08:35:08;27.40;99.70
57753;DHT22;43583;53.132;6.574;2022-09-13T08:37:34;26.60;98.80
57753;DHT22;43583;53.132;6.574;2022-09-13T08:40:00;25.80;98.70
57753;DHT22;43583;53.132;6.574;2022-09-13T08:42:53;26.00;99.90
57753;DHT22;43583;53.132;6.574;2022-09-13T08:45:22;26.50;98.30
57753;DHT22;43583;53.132;6.574;2022-09-13T08:50:28;25.50;97.90
57753;DHT22;43583;53.132;6.574;2022-09-13T08:53:21;25.30;98.10
57753;DHT22;43583;53.132;6.574;2022-09-13T08:56:02;26.00;96.70
57753;DHT22;43583;53.132;6.574;2022-09-13T09:06:49;27.60;94.30
57753;DHT22;43583;53.132;6.574;2022-09-13T09:09:17;26.30;90.60
57753;DHT22;43583;53.132;6.574;2022-09-13T09:12:18;25.40;94.30
57753;DHT22;43583;53.132;6.574;2022-09-13T09:14:55;24.50;94.70
57753;DHT22;43583;53.132;6.574;2022-09-13T09:17:25;24.10;98.30
57753;DHT22;43583;53.132;6.574;2022-09-13T09:23:19;26.10;94.70
57753;DHT22;43583;53.132;6.574;2022-09-13T09:25:46;26.10;92.80
57753;DHT22;43583;53.132;6.574;2022-09-13T09:28:16;26.00;93.90
57753;DHT22;43583;53.132;6.574;2022-09-13T09:30:57;26.20;94.00
57753;DHT22;43583;53.132;6.574;2022-09-13T09:33:40;26.50;93.30
57753;DHT22;43583;53.132;6.574;2022-09-13T09:38:54;26.70;93.40
57753;DHT22;43583;53.132;6.574;2022-09-13T09:41:28;26.70;92.80
57753;DHT22;43583;53.132;6.574;2022-09-13T09:44:00;26.70;93.20
57753;DHT22;43583;53.132;6.574;2022-09-13T09:46:31;26.10;92.90
57753;DHT22;43583;53.132;6.574;2022-09-13T09:52:21;24.50;91.20
57753;DHT22;43583;53.132;6.574;2022-09-13T09:54:48;23.70;93.70
57753;DHT22;43583;53.132;6.574;2022-09-13T09:57:14;23.10;94.00
57753;DHT22;43583;53.132;6.574;2022-09-13T09:59:43;22.60;94.20
57753;DHT22;43583;53.132;6.574;2022-09-13T10:02:19;22.60;95.00
57753;DHT22;43583;53.132;6.574;2022-09-13T10:04:56;22.70;95.50
57753;DHT22;43583;53.132;6.574;2022-09-13T10:07:32;22.90;96.60
57753;DHT22;43583;53.132;6.574;2022-09-13T10:10:03;23.00;95.20
57753;DHT22;43583;53.132;6.574;2022-09-13T10:12:32;23.10;96.30
57753;DHT22;43583;53.132;6.574;2022-09-13T10:15:19;23.30;96.30
57753;DHT22;43583;53.132;6.574;2022-09-13T10:18:14;23.50;95.60
57753;DHT22;43583;53.132;6.574;2022-09-13T10:20:41;23.90;96.70
57753;DHT22;43583;53.132;6.574;2022-09-13T10:25:41;24.20;94.90
57753;DHT22;43583;53.132;6.574;2022-09-13T10:28:15;24.20;95.70
57753;DHT22;43583;53.132;6.574;2022-09-13T10:30:55;23.80;95.90
57753;DHT22;43583;53.132;6.574;2022-09-13T10:33:31;23.30;96.00
57753;DHT22;43583;53.132;6.574;2022-09-13T10:36:17;22.70;96.10
57753;DHT22;43583;53.132;6.574;2022-09-13T10:38:47;22.50;97.40
57753;DHT22;43583;53.132;6.574;2022-09-13T10:41:23;22.50;97.80
57753;DHT22;43583;53.132;6.574;2022-09-13T10:43:58;22.60;96.30
57753;DHT22;43583;53.132;6.574;2022-09-13T10:46:27;22.70;97.30
57753;DHT22;43583;53.132;6.574;2022-09-13T10:48:54;22.90;97.90
57753;DHT22;43583;53.132;6.574;2022-09-13T10:56:40;23.10;95.10
57753;DHT22;43583;53.132;6.574;2022-09-13T10:59:24;23.20;96.80
57753;DHT22;43583;53.132;6.574;2022-09-13T11:07:38;23.70;95.10
57753;DHT22;43583;53.132;6.574;2022-09-13T11:10:31;23.70;95.30
57753;DHT22;43583;53.132;6.574;2022-09-13T11:13:20;23.60;94.20
57753;DHT22;43583;53.132;6.574;2022-09-13T11:16:14;23.20;91.60
57753;DHT22;43583;53.132;6.574;2022-09-13T11:26:58;22.50;92.30
57753;DHT22;43583;53.132;6.574;2022-09-13T11:29:51;22.70;95.20
57753;DHT22;43583;53.132;6.574;2022-09-13T11:37:59;23.20;92.90
57753;DHT22;43583;53.132;6.574;2022-09-13T11:40:45;23.10;94.00
57753;DHT22;43583;53.132;6.574;2022-09-13T11:43:35;22.70;92.40
57753;DHT22;43583;53.132;6.574;2022-09-13T11:46:30;22.50;94.80
57753;DHT22;43583;53.132;6.574;2022-09-13T11:55:05;22.60;94.40
57753;DHT22;43583;53.132;6.574;2022-09-13T11:57:47;22.70;92.90
57753;DHT22;43583;53.132;6.574;2022-09-13T12:00:26;22.40;92.50
57753;DHT22;43583;53.132;6.574;2022-09-13T12:05:46;22.10;94.30
57753;DHT22;43583;53.132;6.574;2022-09-13T12:08:46;21.80;95.30
57753;DHT22;43583;53.132;6.574;2022-09-13T12:11:36;21.70;94.50
57753;DHT22;43583;53.132;6.574;2022-09-13T12:14:06;21.80;95.80
57753;DHT22;43583;53.132;6.574;2022-09-13T12:16:58;21.80;96.10
57753;DHT22;43583;53.132;6.574;2022-09-13T12:19:45;21.80;95.60
57753;DHT22;43583;53.132;6.574;2022-09-13T12:22:13;21.80;96.30
57753;DHT22;43583;53.132;6.574;2022-09-13T12:24:54;21.80;96.40
57753;DHT22;43583;53.132;6.574;2022-09-13T12:27:38;21.80;96.80
57753;DHT22;43583;53.132;6.574;2022-09-13T12:30:22;21.80;96.70
57753;DHT22;43583;53.132;6.574;2022-09-13T12:32:48;22.00;97.60
57753;DHT22;43583;53.132;6.574;2022-09-13T12:35:39;22.10;97.00
57753;DHT22;43583;53.132;6.574;2022-09-13T12:38:31;22.30;97.10
57753;DHT22;43583;53.132;6.574;2022-09-13T12:41:08;22.40;96.40
57753;DHT22;43583;53.132;6.574;2022-09-13T12:47:10;22.60;95.80
57753;DHT22;43583;53.132;6.574;2022-09-13T12:50:06;22.50;93.60
57753;DHT22;43583;53.132;6.574;2022-09-13T12:55:27;22.00;94.40
57753;DHT22;43583;53.132;6.574;2022-09-13T13:01:16;21.80;95.60
57753;DHT22;43583;53.132;6.574;2022-09-13T13:04:13;21.70;95.70
57753;DHT22;43583;53.132;6.574;2022-09-13T13:06:58;21.80;96.60
57753;DHT22;43583;53.132;6.574;2022-09-13T13:09:41;21.70;96.20
57753;DHT22;43583;53.132;6.574;2022-09-13T13:12:24;21.80;97.40
57753;DHT22;43583;53.132;6.574;2022-09-13T13:14:51;21.80;96.20
57753;DHT22;43583;53.132;6.574;2022-09-13T13:23:17;21.70;96.30
57753;DHT22;43583;53.132;6.574;2022-09-13T13:33:54;21.00;95.30
57753;DHT22;43583;53.132;6.574;2022-09-13T13:36:44;20.80;95.80
57753;DHT22;43583;53.132;6.574;2022-09-13T13:41:48;20.80;96.80
57753;DHT22;43583;53.132;6.574;2022-09-13T13:57:31;21.30;95.30
57753;DHT22;43583;53.132;6.574;2022-09-13T14:00:19;21.40;94.50
57753;DHT22;43583;53.132;6.574;2022-09-13T14:02:52;21.30;95.60
57753;DHT22;43583;53.132;6.574;2022-09-13T14:10:39;21.20;95.40
57753;DHT22;43583;53.132;6.574;2022-09-13T14:16:24;20.90;95.50
57753;DHT22;43583;53.132;6.574;2022-09-13T14:21:28;20.70;95.70
57753;DHT22;43583;53.132;6.574;2022-09-13T14:24:27;20.80;95.70
57753;DHT22;43583;53.132;6.574;2022-09-13T14:26:57;20.90;96.20
57753;DHT22;43583;53.132;6.574;2022-09-13T14:29:24;20.90;96.50
57753;DHT22;43583;53.132;6.574;2022-09-13T14:31:54;20.80;96.60
57753;DHT22;43583;53.132;6.574;2022-09-13T14:34:31;20.70;96.00
57753;DHT22;43583;53.132;6.574;2022-09-13T14:37:00;20.60;94.90
57753;DHT22;43583;53.132;6.574;2022-09-13T14:39:27;20.40;96.20
57753;DHT22;43583;53.132;6.574;2022-09-13T14:42:13;20.30;96.10
57753;DHT22;43583;53.132;6.574;2022-09-13T14:44:46;20.20;95.70
57753;DHT22;43583;53.132;6.574;2022-09-13T14:47:29;20.10;95.70
57753;DHT22;43583;53.132;6.574;2022-09-13T14:50:02;20.00;97.10
57753;DHT22;43583;53.132;6.574;2022-09-13T14:52:37;20.00;96.20
57753;DHT22;43583;53.132;6.574;2022-09-13T14:55:17;19.90;97.20
57753;DHT22;43583;53.132;6.574;2022-09-13T14:57:52;19.90;95.90
57753;DHT22;43583;53.132;6.574;2022-09-13T15:00:20;19.80;97.30
57753;DHT22;43583;53.132;6.574;2022-09-13T15:02:50;19.70;96.60
57753;DHT22;43583;53.132;6.574;2022-09-13T15:05:19;19.70;96.60
57753;DHT22;43583;53.132;6.574;2022-09-13T15:07:45;19.60;97.10
57753;DHT22;43583;53.132;6.574;2022-09-13T15:12:47;19.60;97.10
57753;DHT22;43583;53.132;6.574;2022-09-13T15:15:27;19.60;97.10
57753;DHT22;43583;53.132;6.574;2022-09-13T15:17:59;19.50;96.90
57753;DHT22;43583;53.132;6.574;2022-09-13T15:20:28;19.50;97.20
57753;DHT22;43583;53.132;6.574;2022-09-13T15:22:55;19.50;97.50
57753;DHT22;43583;53.132;6.574;2022-09-13T15:25:25;19.50;96.90
57753;DHT22;43583;53.132;6.574;2022-09-13T15:27:51;19.50;96.50
57753;DHT22;43583;53.132;6.574;2022-09-13T15:30:31;19.50;97.10
57753;DHT22;43583;53.132;6.574;2022-09-13T15:35:45;19.30;96.50
57753;DHT22;43583;53.132;6.574;2022-09-13T15:38:25;19.20;96.70
57753;DHT22;43583;53.132;6.574;2022-09-13T15:41:00;19.10;96.60
57753;DHT22;43583;53.132;6.574;2022-09-13T15:43:27;19.10;96.60
57753;DHT22;43583;53.132;6.574;2022-09-13T15:45:55;19.10;97.00
57753;DHT22;43583;53.132;6.574;2022-09-13T15:48:27;19.10;97.50
57753;DHT22;43583;53.132;6.574;2022-09-13T15:51:09;19.20;97.80
57753;DHT22;43583;53.132;6.574;2022-09-13T15:53:36;19.20;98.00
57753;DHT22;43583;53.132;6.574;2022-09-13T15:56:03;19.20;98.30
57753;DHT22;43583;53.132;6.574;2022-09-13T15:58:29;19.10;98.20
57753;DHT22;43583;53.132;6.574;2022-09-13T16:00:55;19.00;98.00
57753;DHT22;43583;53.132;6.574;2022-09-13T16:03:21;19.10;98.30
57753;DHT22;43583;53.132;6.574;2022-09-13T16:05:46;19.00;97.80
57753;DHT22;43583;53.132;6.574;2022-09-13T16:08:12;18.90;98.00
57753;DHT22;43583;53.132;6.574;2022-09-13T16:10:38;18.90;98.60
57753;DHT22;43583;53.132;6.574;2022-09-13T16:13:03;18.70;98.40
57753;DHT22;43583;53.132;6.574;2022-09-13T16:15:29;18.60;98.50
57753;DHT22;43583;53.132;6.574;2022-09-13T16:17:55;18.50;98.30
57753;DHT22;43583;53.132;6.574;2022-09-13T16:20:21;18.50;98.70
57753;DHT22;43583;53.132;6.574;2022-09-13T16:22:46;18.50;98.80
57753;DHT22;43583;53.132;6.574;2022-09-13T16:25:13;18.50;99.10
57753;DHT22;43583;53.132;6.574;2022-09-13T16:27:40;18.50;99.10
57753;DHT22;43583;53.132;6.574;2022-09-13T16:30:06;18.50;99.10
57753;DHT22;43583;53.132;6.574;2022-09-13T16:32:32;18.40;98.80
57753;DHT22;43583;53.132;6.574;2022-09-13T16:34:57;18.40;99.20
57753;DHT22;43583;53.132;6.574;2022-09-13T16:37:23;18.40;99.50
57753;DHT22;43583;53.132;6.574;2022-09-13T16:39:49;18.30;99.90
57753;DHT22;43583;53.132;6.574;2022-09-13T16:42:15;18.20;99.80
57753;DHT22;43583;53.132;6.574;2022-09-13T16:44:42;18.20;99.90
57753;DHT22;43583;53.132;6.574;2022-09-13T16:47:08;18.10;99.90
57753;DHT22;43583;53.132;6.574;2022-09-13T16:49:33;18.00;99.90
57753;DHT22;43583;53.132;6.574;2022-09-13T16:51:59;17.90;99.90
57753;DHT22;43583;53.132;6.574;2022-09-13T16:54:26;17.80;99.90
57753;DHT22;43583;53.132;6.574;2022-09-13T16:56:52;17.80;99.90
57753;DHT22;43583;53.132;6.574;2022-09-13T16:59:18;17.70;99.90
57753;DHT22;43583;53.132;6.574;2022-09-13T17:01:43;17.60;99.90
57753;DHT22;43583;53.132;6.574;2022-09-13T17:04:09;17.50;99.90
57753;DHT22;43583;53.132;6.574;2022-09-13T17:06:36;17.40;99.90
57753;DHT22;43583;53.132;6.574;2022-09-13T17:09:04;17.30;99.90
57753;DHT22;43583;53.132;6.574;2022-09-13T17:11:32;17.20;99.90
57753;DHT22;43583;53.132;6.574;2022-09-13T17:13:59;17.20;99.90
57753;DHT22;43583;53.132;6.574;2022-09-13T17:18:53;17.10;99.90
57753;DHT22;43583;53.132;6.574;2022-09-13T17:21:19;17.00;99.90
57753;DHT22;43583;53.132;6.574;2022-09-13T17:23:45;16.90;99.90
57753;DHT22;43583;53.132;6.574;2022-09-13T17:26:10;16.80;99.90
57753;DHT22;43583;53.132;6.574;2022-09-13T17:28:36;16.70;99.90
57753;DHT22;43583;53.132;6.574;2022-09-13T17:31:02;16.70;99.90
57753;DHT22;43583;53.132;6.574;2022-09-13T17:33:28;16.60;99.90
57753;DHT22;43583;53.132;6.574;2022-09-13T17:35:58;16.50;99.90
57753;DHT22;43583;53.132;6.574;2022-09-13T17:38:24;16.50;99.90
57753;DHT22;43583;53.132;6.574;2022-09-13T17:40:58;16.40;99.90
57753;DHT22;43583;53.132;6.574;2022-09-13T17:43:24;16.30;99.90
57753;DHT22;43583;53.132;6.574;2022-09-13T17:45:49;16.20;99.90
57753;DHT22;43583;53.132;6.574;2022-09-13T17:48:15;16.20;99.90
57753;DHT22;43583;53.132;6.574;2022-09-13T17:50:40;16.20;99.90
57753;DHT22;43583;53.132;6.574;2022-09-13T17:53:06;16.10;99.90
57753;DHT22;43583;53.132;6.574;2022-09-13T17:55:32;16.00;99.90
57753;DHT22;43583;53.132;6.574;2022-09-13T17:57:57;16.00;99.90
57753;DHT22;43583;53.132;6.574;2022-09-13T18:00:23;15.90;99.90
57753;DHT22;43583;53.132;6.574;2022-09-13T18:02:48;15.90;99.90
57753;DHT22;43583;53.132;6.574;2022-09-13T18:05:14;15.80;99.90
57753;DHT22;43583;53.132;6.574;2022-09-13T18:07:40;15.80;99.90
57753;DHT22;43583;53.132;6.574;2022-09-13T18:10:05;15.70;99.90
57753;DHT22;43583;53.132;6.574;2022-09-13T18:12:31;15.60;99.90
57753;DHT22;43583;53.132;6.574;2022-09-13T18:14:57;15.60;99.90
57753;DHT22;43583;53.132;6.574;2022-09-13T18:17:23;15.50;99.90
57753;DHT22;43583;53.132;6.574;2022-09-13T18:19:49;15.40;99.90
57753;DHT22;43583;53.132;6.574;2022-09-13T18:22:14;15.30;99.90
57753;DHT22;43583;53.132;6.574;2022-09-13T18:24:40;15.20;99.90
57753;DHT22;43583;53.132;6.574;2022-09-13T18:27:06;15.10;99.90
57753;DHT22;43583;53.132;6.574;2022-09-13T18:29:31;15.10;99.90
57753;DHT22;43583;53.132;6.574;2022-09-13T18:31:57;14.90;99.90
57753;DHT22;43583;53.132;6.574;2022-09-13T18:34:23;14.80;99.90